sensor_id;sensor_type;location;lat;lon;timestamp;temperature;humidity
45735;DHT22;31446;49.632;8.328;2024-02-15T00:12:55;10.50;99.90
45735;DHT22;31446;49.632;8.328;2024-02-15T00:28:01;10.40;99.90
45735;DHT22;31446;49.632;8.328;2024-02-15T00:43:08;10.50;99.90
45735;DHT22;31446;49.632;8.328;2024-02-15T00:58:14;10.60;99.90
45735;DHT22;31446;49.632;8.328;2024-02-15T01:13:21;10.50;99.90
45735;DHT22;31446;49.632;8.328;2024-02-15T01:28:28;10.50;99.90
45735;DHT22;31446;49.632;8.328;2024-02-15T01:43:35;10.50;99.90
45735;DHT22;31446;49.632;8.328;2024-02-15T01:58:43;10.50;99.90
45735;DHT22;31446;49.632;8.328;2024-02-15T02:13:51;10.40;99.90
45735;DHT22;31446;49.632;8.328;2024-02-15T02:28:58;10.40;99.90
45735;DHT22;31446;49.632;8.328;2024-02-15T02:44:08;10.50;99.90
45735;DHT22;31446;49.632;8.328;2024-02-15T02:59:14;10.30;99.90
45735;DHT22;31446;49.632;8.328;2024-02-15T03:14:21;10.30;99.90
45735;DHT22;31446;49.632;8.328;2024-02-15T03:29:28;10.20;99.90
45735;DHT22;31446;49.632;8.328;2024-02-15T03:44:34;10.40;99.90
45735;DHT22;31446;49.632;8.328;2024-02-15T03:59:41;10.20;99.90
45735;DHT22;31446;49.632;8.328;2024-02-15T04:14:52;10.30;99.90
45735;DHT22;31446;49.632;8.328;2024-02-15T04:30:02;10.30;99.90
45735;DHT22;31446;49.632;8.328;2024-02-15T04:45:10;10.20;99.90
45735;DHT22;31446;49.632;8.328;2024-02-15T05:00:18;10.40;99.90
45735;DHT22;31446;49.632;8.328;2024-02-15T05:31:32;10.20;99.90
45735;DHT22;31446;49.632;8.328;2024-02-15T07:20:31;10.40;99.90
45735;DHT22;31446;49.632;8.328;2024-02-15T07:35:38;10.60;99.90
45735;DHT22;31446;49.632;8.328;2024-02-15T07:50:47;10.60;99.90
45735;DHT22;31446;49.632;8.328;2024-02-15T08:06:16;10.80;99.90
45735;DHT22;31446;49.632;8.328;2024-02-15T08:21:37;11.00;99.90
45735;DHT22;31446;49.632;8.328;2024-02-15T08:36:46;11.40;99.90
45735;DHT22;31446;49.632;8.328;2024-02-15T08:51:54;12.30;99.90
45735;DHT22;31446;49.632;8.328;2024-02-15T09:38:47;13.80;99.90
45735;DHT22;31446;49.632;8.328;2024-02-15T10:09:46;14.30;99.90
45735;DHT22;31446;49.632;8.328;2024-02-15T10:25:25;14.30;99.90
45735;DHT22;31446;49.632;8.328;2024-02-15T11:12:19;15.10;99.90
45735;DHT22;31446;49.632;8.328;2024-02-15T11:27:45;15.70;99.90
45735;DHT22;31446;49.632;8.328;2024-02-15T11:43:04;16.00;99.90
45735;DHT22;31446;49.632;8.328;2024-02-15T11:58:13;16.50;99.90
45735;DHT22;31446;49.632;8.328;2024-02-15T12:13:32;16.60;99.90
45735;DHT22;31446;49.632;8.328;2024-02-15T12:28:54;16.80;99.90
45735;DHT22;31446;49.632;8.328;2024-02-15T12:44:01;16.80;99.90
45735;DHT22;31446;49.632;8.328;2024-02-15T12:59:07;16.60;99.90
45735;DHT22;31446;49.632;8.328;2024-02-15T13:14:13;16.50;99.90
45735;DHT22;31446;49.632;8.328;2024-02-15T13:29:21;16.40;99.90
45735;DHT22;31446;49.632;8.328;2024-02-15T13:44:27;16.30;99.90
45735;DHT22;31446;49.632;8.328;2024-02-15T13:59:34;16.20;99.90
45735;DHT22;31446;49.632;8.328;2024-02-15T14:14:42;16.30;99.90
45735;DHT22;31446;49.632;8.328;2024-02-15T14:29:49;16.40;99.90
45735;DHT22;31446;49.632;8.328;2024-02-15T14:45:08;16.40;99.90
45735;DHT22;31446;49.632;8.328;2024-02-15T15:00:15;16.30;99.90
45735;DHT22;31446;49.632;8.328;2024-02-15T15:15:23;16.20;99.90
45735;DHT22;31446;49.632;8.328;2024-02-15T15:30:30;15.90;99.90
45735;DHT22;31446;49.632;8.328;2024-02-15T15:45:36;15.60;99.90
45735;DHT22;31446;49.632;8.328;2024-02-15T16:00:43;15.30;99.90
45735;DHT22;31446;49.632;8.328;2024-02-15T16:15:51;15.00;99.90
45735;DHT22;31446;49.632;8.328;2024-02-15T16:30:59;14.50;99.90
45735;DHT22;31446;49.632;8.328;2024-02-15T16:46:05;13.90;99.90
45735;DHT22;31446;49.632;8.328;2024-02-15T17:01:11;13.30;99.90
45735;DHT22;31446;49.632;8.328;2024-02-15T17:16:17;13.00;99.90
45735;DHT22;31446;49.632;8.328;2024-02-15T17:31:25;12.90;99.90
45735;DHT22;31446;49.632;8.328;2024-02-15T17:46:31;12.90;99.90
45735;DHT22;31446;49.632;8.328;2024-02-15T18:01:37;12.90;99.90
45735;DHT22;31446;49.632;8.328;2024-02-15T18:16:44;12.70;99.90
45735;DHT22;31446;49.632;8.328;2024-02-15T18:31:53;12.60;99.90
45735;DHT22;31446;49.632;8.328;2024-02-15T18:47:00;12.30;99.90
45735;DHT22;31446;49.632;8.328;2024-02-15T19:02:07;12.10;99.90
45735;DHT22;31446;49.632;8.328;2024-02-15T19:17:14;12.00;99.90
45735;DHT22;31446;49.632;8.328;2024-02-15T19:32:22;11.80;99.90
45735;DHT22;31446;49.632;8.328;2024-02-15T19:47:30;11.70;99.90
45735;DHT22;31446;49.632;8.328;2024-02-15T20:02:37;11.50;99.90
45735;DHT22;31446;49.632;8.328;2024-02-15T20:17:44;11.30;99.90
45735;DHT22;31446;49.632;8.328;2024-02-15T20:32:50;11.10;99.90
45735;DHT22;31446;49.632;8.328;2024-02-15T20:47:59;11.30;99.90
45735;DHT22;31446;49.632;8.328;2024-02-15T21:03:07;11.30;99.90
45735;DHT22;31446;49.632;8.328;2024-02-15T21:18:13;11.30;99.90
45735;DHT22;31446;49.632;8.328;2024-02-15T21:33:19;11.20;99.90
45735;DHT22;31446;49.632;8.328;2024-02-15T21:48:26;11.10;99.90
45735;DHT22;31446;49.632;8.328;2024-02-15T22:03:32;11.50;99.90
45735;DHT22;31446;49.632;8.328;2024-02-15T22:18:38;11.70;99.90
45735;DHT22;31446;49.632;8.328;2024-02-15T22:33:45;12.10;99.90
45735;DHT22;31446;49.632;8.328;2024-02-15T22:48:51;12.10;99.90
45735;DHT22;31446;49.632;8.328;2024-02-15T23:04:00;12.10;99.90
45735;DHT22;31446;49.632;8.328;2024-02-15T23:19:06;12.00;99.90
45735;DHT22;31446;49.632;8.328;2024-02-15T23:34:14;11.90;99.90
45735;DHT22;31446;49.632;8.328;2024-02-15T23:49:20;11.80;99.90
